sensor_id;sensor_type;location;lat;lon;timestamp;pressure;altitude;pressure_sealevel;temperature;humidity
70027;BME280;57506;50.092;15.804;2022-10-31T00:01:56;99561.03;;;6.89;100.00
70027;BME280;57506;50.092;15.804;2022-10-31T00:04:22;99554.84;;;6.88;100.00
70027;BME280;57506;50.092;15.804;2022-10-31T00:06:48;99564.59;;;6.97;100.00
70027;BME280;57506;50.092;15.804;2022-10-31T00:09:13;99569.31;;;7.03;100.00
70027;BME280;57506;50.092;15.804;2022-10-31T00:11:39;99548.53;;;6.97;100.00
70027;BME280;57506;50.092;15.804;2022-10-31T00:14:04;99552.53;;;7.01;100.00
70027;BME280;57506;50.092;15.804;2022-10-31T00:16:30;99569.66;;;7.09;100.00
70027;BME280;57506;50.092;15.804;2022-10-31T00:18:59;99570.50;;;7.09;100.00
70027;BME280;57506;50.092;15.804;2022-10-31T00:21:25;99572.88;;;7.12;100.00
70027;BME280;57506;50.092;15.804;2022-10-31T00:23:51;99569.81;;;7.07;100.00
70027;BME280;57506;50.092;15.804;2022-10-31T00:26:17;99562.09;;;7.04;100.00
70027;BME280;57506;50.092;15.804;2022-10-31T00:28:43;99554.03;;;6.96;100.00
70027;BME280;57506;50.092;15.804;2022-10-31T00:31:10;99576.53;;;7.11;100.00
70027;BME280;57506;50.092;15.804;2022-10-31T00:33:37;99579.84;;;7.05;100.00
70027;BME280;57506;50.092;15.804;2022-10-31T00:36:04;99588.53;;;6.99;100.00
70027;BME280;57506;50.092;15.804;2022-10-31T00:38:29;99585.16;;;6.89;100.00
70027;BME280;57506;50.092;15.804;2022-10-31T00:40:55;99578.44;;;6.85;100.00
70027;BME280;57506;50.092;15.804;2022-10-31T00:43:21;99562.19;;;6.78;100.00
70027;BME280;57506;50.092;15.804;2022-10-31T00:45:46;99584.75;;;6.76;100.00
70027;BME280;57506;50.092;15.804;2022-10-31T00:48:12;99583.09;;;6.83;100.00
70027;BME280;57506;50.092;15.804;2022-10-31T00:50:38;99571.44;;;6.92;100.00
70027;BME280;57506;50.092;15.804;2022-10-31T00:53:03;99590.56;;;7.05;100.00
70027;BME280;57506;50.092;15.804;2022-10-31T00:55:29;99596.91;;;6.96;100.00
70027;BME280;57506;50.092;15.804;2022-10-31T00:57:54;99585.47;;;6.86;100.00
70027;BME280;57506;50.092;15.804;2022-10-31T01:00:20;99588.50;;;6.91;100.00
70027;BME280;57506;50.092;15.804;2022-10-31T01:02:46;99576.44;;;6.87;100.00
70027;BME280;57506;50.092;15.804;2022-10-31T01:05:12;99594.56;;;6.93;100.00
70027;BME280;57506;50.092;15.804;2022-10-31T01:07:39;99576.44;;;6.87;100.00
70027;BME280;57506;50.092;15.804;2022-10-31T01:10:06;99590.72;;;6.95;100.00
70027;BME280;57506;50.092;15.804;2022-10-31T01:12:40;99598.59;;;6.97;100.00
70027;BME280;57506;50.092;15.804;2022-10-31T01:15:06;99584.38;;;6.96;100.00
70027;BME280;57506;50.092;15.804;2022-10-31T01:17:32;99592.41;;;6.96;100.00
70027;BME280;57506;50.092;15.804;2022-10-31T01:19:58;99583.16;;;6.91;100.00
70027;BME280;57506;50.092;15.804;2022-10-31T01:22:23;99580.16;;;6.94;100.00
70027;BME280;57506;50.092;15.804;2022-10-31T01:24:49;99592.91;;;7.00;100.00
70027;BME280;57506;50.092;15.804;2022-10-31T01:27:14;99578.16;;;6.96;100.00
70027;BME280;57506;50.092;15.804;2022-10-31T01:29:40;99574.81;;;7.02;100.00
70027;BME280;57506;50.092;15.804;2022-10-31T01:32:05;99582.75;;;7.12;100.00
70027;BME280;57506;50.092;15.804;2022-10-31T01:34:31;99574.50;;;7.05;100.00
70027;BME280;57506;50.092;15.804;2022-10-31T01:36:56;99583.00;;;7.00;100.00
70027;BME280;57506;50.092;15.804;2022-10-31T01:39:22;99585.53;;;7.02;100.00
70027;BME280;57506;50.092;15.804;2022-10-31T01:41:51;99583.38;;;6.97;100.00
70027;BME280;57506;50.092;15.804;2022-10-31T01:46:50;99586.53;;;6.93;100.00
70027;BME280;57506;50.092;15.804;2022-10-31T01:49:36;99586.88;;;6.98;100.00
70027;BME280;57506;50.092;15.804;2022-10-31T01:54:33;99569.28;;;6.95;100.00
70027;BME280;57506;50.092;15.804;2022-10-31T01:57:02;99575.81;;;7.01;100.00
70027;BME280;57506;50.092;15.804;2022-10-31T01:59:32;99578.50;;;7.01;100.00
70027;BME280;57506;50.092;15.804;2022-10-31T02:01:59;99572.13;;;6.94;100.00
70027;BME280;57506;50.092;15.804;2022-10-31T02:04:25;99573.44;;;6.90;100.00
70027;BME280;57506;50.092;15.804;2022-10-31T02:06:55;99582.69;;;6.95;100.00
70027;BME280;57506;50.092;15.804;2022-10-31T02:09:23;99586.38;;;7.02;100.00
70027;BME280;57506;50.092;15.804;2022-10-31T02:11:54;99568.41;;;6.87;100.00
70027;BME280;57506;50.092;15.804;2022-10-31T02:14:22;99582.84;;;6.94;100.00
70027;BME280;57506;50.092;15.804;2022-10-31T02:16:49;99572.72;;;6.80;100.00
70027;BME280;57506;50.092;15.804;2022-10-31T02:24:45;99591.66;;;6.78;100.00
70027;BME280;57506;50.092;15.804;2022-10-31T02:35:32;99584.13;;;6.82;100.00
70027;BME280;57506;50.092;15.804;2022-10-31T02:40:39;99571.53;;;6.74;100.00
70027;BME280;57506;50.092;15.804;2022-10-31T02:46:32;99585.69;;;6.92;100.00
70027;BME280;57506;50.092;15.804;2022-10-31T02:49:05;99591.56;;;6.96;100.00
70027;BME280;57506;50.092;15.804;2022-10-31T02:51:32;99588.91;;;7.04;100.00
70027;BME280;57506;50.092;15.804;2022-10-31T02:53:58;99576.13;;;6.90;100.00
70027;BME280;57506;50.092;15.804;2022-10-31T02:56:24;99584.00;;;6.91;100.00
70027;BME280;57506;50.092;15.804;2022-10-31T02:58:54;99566.38;;;6.81;100.00
70027;BME280;57506;50.092;15.804;2022-10-31T03:09:25;99590.03;;;6.93;100.00
70027;BME280;57506;50.092;15.804;2022-10-31T03:12:18;99601.53;;;6.86;100.00
70027;BME280;57506;50.092;15.804;2022-10-31T03:17:36;99603.13;;;6.71;100.00
70027;BME280;57506;50.092;15.804;2022-10-31T03:20:03;99606.81;;;6.70;100.00
70027;BME280;57506;50.092;15.804;2022-10-31T03:22:31;99619.50;;;6.67;100.00
70027;BME280;57506;50.092;15.804;2022-10-31T03:25:00;99620.19;;;6.70;100.00
70027;BME280;57506;50.092;15.804;2022-10-31T03:27:29;99621.19;;;6.68;100.00
70027;BME280;57506;50.092;15.804;2022-10-31T03:29:57;99602.81;;;6.74;100.00
70027;BME280;57506;50.092;15.804;2022-10-31T03:32:35;99605.88;;;6.79;100.00
70027;BME280;57506;50.092;15.804;2022-10-31T03:35:03;99613.63;;;6.90;100.00
70027;BME280;57506;50.092;15.804;2022-10-31T03:37:33;99616.69;;;7.03;100.00
70027;BME280;57506;50.092;15.804;2022-10-31T03:40:00;99603.97;;;6.97;100.00
70027;BME280;57506;50.092;15.804;2022-10-31T03:42:30;99624.94;;;7.10;100.00
70027;BME280;57506;50.092;15.804;2022-10-31T03:45:01;99617.91;;;7.17;100.00
70027;BME280;57506;50.092;15.804;2022-10-31T03:47:28;99606.03;;;7.19;100.00
70027;BME280;57506;50.092;15.804;2022-10-31T03:49:54;99615.28;;;7.33;100.00
70027;BME280;57506;50.092;15.804;2022-10-31T03:55:17;99621.06;;;7.54;100.00
70027;BME280;57506;50.092;15.804;2022-10-31T03:57:52;99614.69;;;7.55;100.00
70027;BME280;57506;50.092;15.804;2022-10-31T04:00:21;99611.97;;;7.47;100.00
70027;BME280;57506;50.092;15.804;2022-10-31T04:02:57;99605.44;;;7.50;100.00
70027;BME280;57506;50.092;15.804;2022-10-31T04:05:24;99601.44;;;7.54;100.00
70027;BME280;57506;50.092;15.804;2022-10-31T04:07:53;99594.09;;;7.56;100.00
70027;BME280;57506;50.092;15.804;2022-10-31T04:10:20;99607.16;;;7.67;100.00
70027;BME280;57506;50.092;15.804;2022-10-31T04:12:51;99597.97;;;7.69;100.00
70027;BME280;57506;50.092;15.804;2022-10-31T04:15:19;99623.28;;;7.75;100.00
70027;BME280;57506;50.092;15.804;2022-10-31T04:17:46;99621.28;;;7.77;100.00
70027;BME280;57506;50.092;15.804;2022-10-31T04:20:16;99623.97;;;7.77;100.00
70027;BME280;57506;50.092;15.804;2022-10-31T04:22:42;99619.28;;;7.87;100.00
70027;BME280;57506;50.092;15.804;2022-10-31T04:25:07;99621.28;;;7.85;100.00
70027;BME280;57506;50.092;15.804;2022-10-31T04:27:33;99619.94;;;7.81;100.00
70027;BME280;57506;50.092;15.804;2022-10-31T04:29:59;99624.13;;;7.84;100.00
70027;BME280;57506;50.092;15.804;2022-10-31T04:32:25;99623.47;;;7.90;100.00
70027;BME280;57506;50.092;15.804;2022-10-31T04:34:51;99602.66;;;7.84;100.00
70027;BME280;57506;50.092;15.804;2022-10-31T04:37:16;99619.94;;;7.89;100.00
70027;BME280;57506;50.092;15.804;2022-10-31T04:39:42;99620.59;;;7.83;100.00
70027;BME280;57506;50.092;15.804;2022-10-31T04:42:07;99616.44;;;7.89;100.00
70027;BME280;57506;50.092;15.804;2022-10-31T04:44:33;99618.75;;;7.84;100.00
70027;BME280;57506;50.092;15.804;2022-10-31T04:46:58;99630.53;;;7.91;100.00
70027;BME280;57506;50.092;15.804;2022-10-31T04:49:24;99621.13;;;7.95;100.00
70027;BME280;57506;50.092;15.804;2022-10-31T04:51:49;99621.97;;;8.03;100.00
70027;BME280;57506;50.092;15.804;2022-10-31T04:54:15;99614.25;;;8.00;100.00
70027;BME280;57506;50.092;15.804;2022-10-31T04:56:40;99610.88;;;7.98;100.00
70027;BME280;57506;50.092;15.804;2022-10-31T04:59:05;99621.81;;;8.05;100.00
70027;BME280;57506;50.092;15.804;2022-10-31T05:01:31;99613.25;;;7.93;100.00
70027;BME280;57506;50.092;15.804;2022-10-31T05:03:56;99629.69;;;7.98;100.00
70027;BME280;57506;50.092;15.804;2022-10-31T05:06:22;99646.13;;;8.03;100.00
70027;BME280;57506;50.092;15.804;2022-10-31T05:08:47;99623.16;;;7.93;100.00
70027;BME280;57506;50.092;15.804;2022-10-31T05:11:13;99635.22;;;7.97;100.00
70027;BME280;57506;50.092;15.804;2022-10-31T05:13:38;99615.59;;;7.88;100.00
70027;BME280;57506;50.092;15.804;2022-10-31T05:16:04;99624.84;;;7.94;100.00
70027;BME280;57506;50.092;15.804;2022-10-31T05:18:30;99640.75;;;8.03;100.00
70027;BME280;57506;50.092;15.804;2022-10-31T05:20:55;99636.72;;;7.99;100.00
70027;BME280;57506;50.092;15.804;2022-10-31T05:23:21;99638.44;;;8.08;100.00
70027;BME280;57506;50.092;15.804;2022-10-31T05:25:46;99641.09;;;8.00;100.00
70027;BME280;57506;50.092;15.804;2022-10-31T05:28:12;99635.56;;;8.02;100.00
70027;BME280;57506;50.092;15.804;2022-10-31T05:30:37;99635.88;;;7.99;100.00
70027;BME280;57506;50.092;15.804;2022-10-31T05:33:03;99644.97;;;8.06;100.00
70027;BME280;57506;50.092;15.804;2022-10-31T05:35:30;99644.63;;;8.09;100.00
70027;BME280;57506;50.092;15.804;2022-10-31T05:37:57;99646.16;;;8.12;100.00
70027;BME280;57506;50.092;15.804;2022-10-31T05:40:23;99642.44;;;8.13;100.00
70027;BME280;57506;50.092;15.804;2022-10-31T05:42:51;99648.31;;;8.16;100.00
70027;BME280;57506;50.092;15.804;2022-10-31T05:45:18;99661.25;;;8.21;100.00
70027;BME280;57506;50.092;15.804;2022-10-31T05:48:00;99654.88;;;8.22;100.00
70027;BME280;57506;50.092;15.804;2022-10-31T05:50:28;99654.03;;;8.21;100.00
70027;BME280;57506;50.092;15.804;2022-10-31T05:53:03;99658.41;;;8.22;100.00
70027;BME280;57506;50.092;15.804;2022-10-31T05:55:29;99658.72;;;8.19;100.00
70027;BME280;57506;50.092;15.804;2022-10-31T05:57:56;99642.44;;;8.04;100.00
70027;BME280;57506;50.092;15.804;2022-10-31T06:00:22;99652.50;;;8.02;100.00
70027;BME280;57506;50.092;15.804;2022-10-31T06:02:48;99644.78;;;7.99;100.00
70027;BME280;57506;50.092;15.804;2022-10-31T06:05:14;99639.25;;;7.93;100.00
70027;BME280;57506;50.092;15.804;2022-10-31T06:07:41;99668.63;;;8.11;100.00
70027;BME280;57506;50.092;15.804;2022-10-31T06:10:08;99657.88;;;8.02;100.00
70027;BME280;57506;50.092;15.804;2022-10-31T06:12:34;99651.66;;;8.02;100.00
70027;BME280;57506;50.092;15.804;2022-10-31T06:15:08;99665.75;;;8.12;100.00
70027;BME280;57506;50.092;15.804;2022-10-31T06:17:34;99670.13;;;8.21;100.00
70027;BME280;57506;50.092;15.804;2022-10-31T06:20:00;99676.84;;;8.25;100.00
70027;BME280;57506;50.092;15.804;2022-10-31T06:22:26;99668.94;;;8.16;100.00
70027;BME280;57506;50.092;15.804;2022-10-31T06:24:52;99664.25;;;8.18;100.00
70027;BME280;57506;50.092;15.804;2022-10-31T06:27:17;99681.69;;;8.30;100.00
70027;BME280;57506;50.092;15.804;2022-10-31T06:29:43;99664.59;;;8.23;100.00
70027;BME280;57506;50.092;15.804;2022-10-31T06:32:11;99665.63;;;8.38;100.00
70027;BME280;57506;50.092;15.804;2022-10-31T06:34:38;99685.44;;;8.53;100.00
70027;BME280;57506;50.092;15.804;2022-10-31T06:37:05;99691.16;;;8.42;100.00
70027;BME280;57506;50.092;15.804;2022-10-31T06:39:31;99684.09;;;8.41;100.00
70027;BME280;57506;50.092;15.804;2022-10-31T06:41:57;99695.00;;;8.48;100.00
70027;BME280;57506;50.092;15.804;2022-10-31T06:44:22;99680.91;;;8.37;100.00
70027;BME280;57506;50.092;15.804;2022-10-31T06:46:48;99680.72;;;8.47;100.00
70027;BME280;57506;50.092;15.804;2022-10-31T06:49:14;99692.50;;;8.54;100.00
70027;BME280;57506;50.092;15.804;2022-10-31T06:51:39;99707.25;;;8.66;100.00
70027;BME280;57506;50.092;15.804;2022-10-31T06:54:05;99701.56;;;8.69;100.00
70027;BME280;57506;50.092;15.804;2022-10-31T06:56:30;99699.03;;;8.68;100.00
70027;BME280;57506;50.092;15.804;2022-10-31T06:58:56;99673.34;;;8.65;100.00
70027;BME280;57506;50.092;15.804;2022-10-31T07:01:21;99701.19;;;8.89;100.00
70027;BME280;57506;50.092;15.804;2022-10-31T07:03:47;99690.41;;;8.97;100.00
70027;BME280;57506;50.092;15.804;2022-10-31T07:06:12;99713.72;;;9.12;100.00
70027;BME280;57506;50.092;15.804;2022-10-31T07:08:38;99694.94;;;8.96;100.00
70027;BME280;57506;50.092;15.804;2022-10-31T07:11:03;99704.53;;;9.07;100.00
70027;BME280;57506;50.092;15.804;2022-10-31T07:13:29;99700.16;;;8.98;100.00
70027;BME280;57506;50.092;15.804;2022-10-31T07:16:00;99721.28;;;9.17;100.00
70027;BME280;57506;50.092;15.804;2022-10-31T07:18:26;99734.53;;;9.27;100.00
70027;BME280;57506;50.092;15.804;2022-10-31T07:20:52;99710.88;;;9.22;100.00
70027;BME280;57506;50.092;15.804;2022-10-31T07:23:18;99727.41;;;9.50;100.00
70027;BME280;57506;50.092;15.804;2022-10-31T07:25:44;99737.38;;;9.41;100.00
70027;BME280;57506;50.092;15.804;2022-10-31T07:28:10;99732.00;;;9.41;100.00
70027;BME280;57506;50.092;15.804;2022-10-31T07:30:37;99720.19;;;9.51;100.00
70027;BME280;57506;50.092;15.804;2022-10-31T07:33:03;99733.41;;;9.68;100.00
70027;BME280;57506;50.092;15.804;2022-10-31T07:35:29;99684.59;;;9.40;100.00
70027;BME280;57506;50.092;15.804;2022-10-31T07:37:56;99732.16;;;9.79;100.00
70027;BME280;57506;50.092;15.804;2022-10-31T07:40:22;99730.47;;;9.78;100.00
70027;BME280;57506;50.092;15.804;2022-10-31T07:42:50;99719.38;;;9.81;100.00
70027;BME280;57506;50.092;15.804;2022-10-31T07:45:20;99726.66;;;9.72;100.00
70027;BME280;57506;50.092;15.804;2022-10-31T07:47:50;99730.75;;;9.91;100.00
70027;BME280;57506;50.092;15.804;2022-10-31T07:50:27;99713.84;;;9.74;100.00
70027;BME280;57506;50.092;15.804;2022-10-31T07:53:08;99730.75;;;9.91;100.00
70027;BME280;57506;50.092;15.804;2022-10-31T07:55:34;99732.75;;;9.97;100.00
70027;BME280;57506;50.092;15.804;2022-10-31T07:58:08;99737.25;;;10.05;100.00
70027;BME280;57506;50.092;15.804;2022-10-31T08:00:36;99733.00;;;10.10;100.00
70027;BME280;57506;50.092;15.804;2022-10-31T08:03:04;99736.41;;;10.04;100.00
70027;BME280;57506;50.092;15.804;2022-10-31T08:05:30;99727.44;;;10.12;100.00
70027;BME280;57506;50.092;15.804;2022-10-31T08:07:56;99741.56;;;10.14;100.00
70027;BME280;57506;50.092;15.804;2022-10-31T08:10:23;99728.63;;;10.09;100.00
70027;BME280;57506;50.092;15.804;2022-10-31T08:13:06;99745.63;;;10.10;100.00
70027;BME280;57506;50.092;15.804;2022-10-31T08:15:33;99733.75;;;9.96;100.00
70027;BME280;57506;50.092;15.804;2022-10-31T08:18:05;99736.59;;;10.03;100.00
70027;BME280;57506;50.092;15.804;2022-10-31T08:20:31;99734.00;;;10.09;100.00
70027;BME280;57506;50.092;15.804;2022-10-31T08:23:02;99736.03;;;10.07;100.00
70027;BME280;57506;50.092;15.804;2022-10-31T08:25:29;99731.31;;;10.09;100.00
70027;BME280;57506;50.092;15.804;2022-10-31T08:27:56;99732.28;;;10.16;100.00
70027;BME280;57506;50.092;15.804;2022-10-31T08:30:25;99744.00;;;10.32;100.00
70027;BME280;57506;50.092;15.804;2022-10-31T08:33:05;99740.06;;;10.20;100.00
70027;BME280;57506;50.092;15.804;2022-10-31T08:35:32;99738.03;;;10.22;100.00
70027;BME280;57506;50.092;15.804;2022-10-31T08:37:58;99739.94;;;10.36;100.00
70027;BME280;57506;50.092;15.804;2022-10-31T08:40:24;99748.03;;;10.36;100.00
70027;BME280;57506;50.092;15.804;2022-10-31T08:43:01;99733.97;;;10.48;100.00
70027;BME280;57506;50.092;15.804;2022-10-31T08:45:28;99730.81;;;10.60;100.00
70027;BME280;57506;50.092;15.804;2022-10-31T08:48:02;99732.53;;;10.38;100.00
70027;BME280;57506;50.092;15.804;2022-10-31T08:50:29;99741.78;;;10.58;100.00
70027;BME280;57506;50.092;15.804;2022-10-31T08:53:06;99747.66;;;10.62;100.00
70027;BME280;57506;50.092;15.804;2022-10-31T08:55:36;99745.31;;;10.59;100.00
70027;BME280;57506;50.092;15.804;2022-10-31T08:58:04;99746.78;;;10.69;100.00
70027;BME280;57506;50.092;15.804;2022-10-31T09:00:31;99732.44;;;10.69;100.00
70027;BME280;57506;50.092;15.804;2022-10-31T09:03:03;99724.50;;;10.52;100.00
70027;BME280;57506;50.092;15.804;2022-10-31T09:05:30;99742.66;;;10.73;100.00
70027;BME280;57506;50.092;15.804;2022-10-31T09:07:57;99751.06;;;10.78;100.00
70027;BME280;57506;50.092;15.804;2022-10-31T09:10:24;99752.06;;;11.00;100.00
70027;BME280;57506;50.092;15.804;2022-10-31T09:13:01;99763.50;;;11.02;100.00
70027;BME280;57506;50.092;15.804;2022-10-31T09:15:30;99750.44;;;10.91;100.00
70027;BME280;57506;50.092;15.804;2022-10-31T09:17:55;99752.19;;;10.84;100.00
70027;BME280;57506;50.092;15.804;2022-10-31T09:20:21;99768.28;;;10.92;100.00
70027;BME280;57506;50.092;15.804;2022-10-31T09:22:47;99761.69;;;10.95;100.00
70027;BME280;57506;50.092;15.804;2022-10-31T09:25:13;99768.97;;;11.09;100.00
70027;BME280;57506;50.092;15.804;2022-10-31T09:27:39;99765.41;;;11.31;100.00
70027;BME280;57506;50.092;15.804;2022-10-31T09:30:04;99771.25;;;11.20;100.00
70027;BME280;57506;50.092;15.804;2022-10-31T09:32:30;99758.78;;;11.19;100.00
70027;BME280;57506;50.092;15.804;2022-10-31T09:34:56;99762.34;;;11.34;100.00
70027;BME280;57506;50.092;15.804;2022-10-31T09:37:21;99774.81;;;11.50;100.00
70027;BME280;57506;50.092;15.804;2022-10-31T09:39:47;99769.97;;;11.60;100.00
70027;BME280;57506;50.092;15.804;2022-10-31T09:45:30;99771.84;;;11.60;100.00
70027;BME280;57506;50.092;15.804;2022-10-31T09:48:09;99768.28;;;11.44;100.00
70027;BME280;57506;50.092;15.804;2022-10-31T09:50:46;99761.97;;;11.67;100.00
70027;BME280;57506;50.092;15.804;2022-10-31T09:53:34;99772.97;;;11.80;100.00
70027;BME280;57506;50.092;15.804;2022-10-31T09:56:08;99770.28;;;11.80;100.00
70027;BME280;57506;50.092;15.804;2022-10-31T09:58:41;99762.63;;;11.69;100.00
70027;BME280;57506;50.092;15.804;2022-10-31T10:01:19;99774.16;;;11.63;100.00
70027;BME280;57506;50.092;15.804;2022-10-31T10:03:50;99762.16;;;11.65;100.00
70027;BME280;57506;50.092;15.804;2022-10-31T10:06:24;99773.88;;;11.87;100.00
70027;BME280;57506;50.092;15.804;2022-10-31T10:08:51;99759.81;;;11.91;100.00
70027;BME280;57506;50.092;15.804;2022-10-31T10:19:26;99765.22;;;11.62;100.00
70027;BME280;57506;50.092;15.804;2022-10-31T10:22:04;99770.44;;;11.64;100.00
70027;BME280;57506;50.092;15.804;2022-10-31T10:30:07;99760.88;;;11.76;100.00
70027;BME280;57506;50.092;15.804;2022-10-31T10:32:49;99752.28;;;11.87;100.00
70027;BME280;57506;50.092;15.804;2022-10-31T10:35:32;99744.16;;;12.02;100.00
70027;BME280;57506;50.092;15.804;2022-10-31T10:38:07;99746.66;;;12.03;100.00
70027;BME280;57506;50.092;15.804;2022-10-31T10:40:35;99753.38;;;12.07;100.00
70027;BME280;57506;50.092;15.804;2022-10-31T10:48:43;99741.88;;;11.84;100.00
70027;BME280;57506;50.092;15.804;2022-10-31T10:51:26;99749.50;;;11.95;100.00
70027;BME280;57506;50.092;15.804;2022-10-31T10:58:55;99733.06;;;12.11;100.00
70027;BME280;57506;50.092;15.804;2022-10-31T11:01:22;99731.28;;;12.04;100.00
70027;BME280;57506;50.092;15.804;2022-10-31T11:03:47;99728.50;;;12.12;100.00
70027;BME280;57506;50.092;15.804;2022-10-31T11:06:23;99730.53;;;12.10;100.00
70027;BME280;57506;50.092;15.804;2022-10-31T11:08:51;99729.63;;;12.03;100.00
70027;BME280;57506;50.092;15.804;2022-10-31T11:13:45;99728.41;;;12.05;100.00
70027;BME280;57506;50.092;15.804;2022-10-31T11:18:51;99704.31;;;11.89;100.00
70027;BME280;57506;50.092;15.804;2022-10-31T11:21:37;99724.16;;;11.96;100.00
70027;BME280;57506;50.092;15.804;2022-10-31T11:24:25;99736.34;;;11.92;100.00
70027;BME280;57506;50.092;15.804;2022-10-31T11:27:09;99713.19;;;11.83;100.00
70027;BME280;57506;50.092;15.804;2022-10-31T11:29:36;99706.13;;;11.82;100.00
70027;BME280;57506;50.092;15.804;2022-10-31T11:32:02;99724.91;;;11.90;100.00
70027;BME280;57506;50.092;15.804;2022-10-31T11:34:41;99723.28;;;12.10;100.00
70027;BME280;57506;50.092;15.804;2022-10-31T11:37:13;99714.66;;;12.00;100.00
70027;BME280;57506;50.092;15.804;2022-10-31T11:39:47;99712.97;;;11.99;100.00
70027;BME280;57506;50.092;15.804;2022-10-31T11:42:22;99712.56;;;12.02;100.00
70027;BME280;57506;50.092;15.804;2022-10-31T11:44:50;99713.69;;;12.08;100.00
70027;BME280;57506;50.092;15.804;2022-10-31T11:47:17;99704.75;;;12.07;100.00
70027;BME280;57506;50.092;15.804;2022-10-31T11:49:47;99701.75;;;12.02;100.00
70027;BME280;57506;50.092;15.804;2022-10-31T11:52:21;99710.28;;;11.99;100.00
70027;BME280;57506;50.092;15.804;2022-10-31T11:59:56;99691.91;;;12.31;100.00
70027;BME280;57506;50.092;15.804;2022-10-31T12:02:23;99700.97;;;12.44;100.00
70027;BME280;57506;50.092;15.804;2022-10-31T12:04:59;99712.38;;;12.61;100.00
70027;BME280;57506;50.092;15.804;2022-10-31T12:07:28;99700.91;;;12.87;100.00
70027;BME280;57506;50.092;15.804;2022-10-31T12:09:54;99701.41;;;12.69;100.00
70027;BME280;57506;50.092;15.804;2022-10-31T12:17:19;99686.28;;;12.75;100.00
70027;BME280;57506;50.092;15.804;2022-10-31T12:25:34;99692.16;;;12.57;100.00
70027;BME280;57506;50.092;15.804;2022-10-31T12:33:33;99677.28;;;12.46;100.00
70027;BME280;57506;50.092;15.804;2022-10-31T12:36:17;99659.44;;;12.52;100.00
70027;BME280;57506;50.092;15.804;2022-10-31T12:45:07;99665.75;;;12.87;100.00
70027;BME280;57506;50.092;15.804;2022-10-31T13:01:33;99651.00;;;12.34;100.00
70027;BME280;57506;50.092;15.804;2022-10-31T13:04:03;99656.06;;;12.43;100.00
70027;BME280;57506;50.092;15.804;2022-10-31T13:06:35;99644.22;;;12.23;100.00
70027;BME280;57506;50.092;15.804;2022-10-31T13:09:11;99651.19;;;12.32;100.00
70027;BME280;57506;50.092;15.804;2022-10-31T13:11:44;99637.44;;;12.55;100.00
70027;BME280;57506;50.092;15.804;2022-10-31T13:14:37;99645.53;;;12.55;100.00
70027;BME280;57506;50.092;15.804;2022-10-31T13:17:05;99628.03;;;12.51;100.00
70027;BME280;57506;50.092;15.804;2022-10-31T13:19:37;99629.56;;;12.60;100.00
70027;BME280;57506;50.092;15.804;2022-10-31T13:22:14;99626.22;;;12.58;100.00
70027;BME280;57506;50.092;15.804;2022-10-31T13:27:24;99622.88;;;12.84;100.00
70027;BME280;57506;50.092;15.804;2022-10-31T13:30:03;99609.72;;;12.74;100.00
70027;BME280;57506;50.092;15.804;2022-10-31T13:32:48;99618.56;;;12.61;100.00
70027;BME280;57506;50.092;15.804;2022-10-31T13:37:57;99615.34;;;12.51;100.00
70027;BME280;57506;50.092;15.804;2022-10-31T13:40:35;99608.44;;;12.42;100.00
70027;BME280;57506;50.092;15.804;2022-10-31T13:43:24;99610.97;;;12.50;100.00
70027;BME280;57506;50.092;15.804;2022-10-31T13:45:54;99605.44;;;12.31;100.00
70027;BME280;57506;50.092;15.804;2022-10-31T13:48:35;99590.09;;;12.38;100.00
70027;BME280;57506;50.092;15.804;2022-10-31T13:51:07;99583.19;;;12.35;100.00
70027;BME280;57506;50.092;15.804;2022-10-31T13:53:56;99585.47;;;12.32;100.00
70027;BME280;57506;50.092;15.804;2022-10-31T13:56:25;99580.94;;;12.39;100.00
70027;BME280;57506;50.092;15.804;2022-10-31T14:01:31;99579.66;;;12.35;100.00
70027;BME280;57506;50.092;15.804;2022-10-31T14:09:48;99591.06;;;12.30;100.00
70027;BME280;57506;50.092;15.804;2022-10-31T14:12:41;99602.53;;;12.32;100.00
70027;BME280;57506;50.092;15.804;2022-10-31T14:15:23;99606.38;;;12.23;100.00
70027;BME280;57506;50.092;15.804;2022-10-31T14:17:58;99586.66;;;12.01;100.00
70027;BME280;57506;50.092;15.804;2022-10-31T14:20:45;99586.97;;;11.91;100.00
70027;BME280;57506;50.092;15.804;2022-10-31T14:28:53;99572.78;;;11.83;100.00
70027;BME280;57506;50.092;15.804;2022-10-31T14:33:59;99564.72;;;11.68;100.00
70027;BME280;57506;50.092;15.804;2022-10-31T14:36:45;99562.84;;;11.69;100.00
70027;BME280;57506;50.092;15.804;2022-10-31T14:42:18;99553.59;;;11.78;100.00
70027;BME280;57506;50.092;15.804;2022-10-31T14:47:36;99564.41;;;11.78;100.00
70027;BME280;57506;50.092;15.804;2022-10-31T14:52:36;99545.84;;;11.53;100.00
70027;BME280;57506;50.092;15.804;2022-10-31T14:55:10;99534.16;;;11.46;100.00
70027;BME280;57506;50.092;15.804;2022-10-31T14:57:37;99528.09;;;11.44;100.00
70027;BME280;57506;50.092;15.804;2022-10-31T15:00:16;99534.19;;;11.32;100.00
70027;BME280;57506;50.092;15.804;2022-10-31T15:05:30;99518.38;;;11.29;100.00
70027;BME280;57506;50.092;15.804;2022-10-31T15:07:58;99512.78;;;11.30;100.00
70027;BME280;57506;50.092;15.804;2022-10-31T15:10:33;99508.69;;;11.34;100.00
70027;BME280;57506;50.092;15.804;2022-10-31T15:13:20;99516.00;;;11.40;100.00
70027;BME280;57506;50.092;15.804;2022-10-31T15:15:47;99507.47;;;11.37;100.00
70027;BME280;57506;50.092;15.804;2022-10-31T15:18:16;99518.66;;;11.34;100.00
70027;BME280;57506;50.092;15.804;2022-10-31T15:20:43;99513.25;;;11.34;100.00
70027;BME280;57506;50.092;15.804;2022-10-31T15:23:16;99515.50;;;11.30;100.00